sensor_id;sensor_type;location;lat;lon;timestamp;P1;durP1;ratioP1;P2;durP2;ratioP2
18072;SDS011;9161;47.348;9.648;2022-11-15T00:02:51;1.50;;;0.87;;
18072;SDS011;9161;47.348;9.648;2022-11-15T00:07:35;1.10;;;0.60;;
18072;SDS011;9161;47.348;9.648;2022-11-15T00:12:36;1.93;;;0.87;;
18072;SDS011;9161;47.348;9.648;2022-11-15T00:17:22;1.73;;;0.93;;
18072;SDS011;9161;47.348;9.648;2022-11-15T00:22:05;4.07;;;1.37;;
18072;SDS011;9161;47.348;9.648;2022-11-15T00:26:49;7.93;;;2.97;;
18072;SDS011;9161;47.348;9.648;2022-11-15T00:31:33;8.13;;;3.67;;
18072;SDS011;9161;47.348;9.648;2022-11-15T00:36:18;11.90;;;4.80;;
18072;SDS011;9161;47.348;9.648;2022-11-15T00:41:02;5.77;;;3.67;;
18072;SDS011;9161;47.348;9.648;2022-11-15T00:45:50;7.77;;;3.53;;
18072;SDS011;9161;47.348;9.648;2022-11-15T00:50:34;8.00;;;3.73;;
18072;SDS011;9161;47.348;9.648;2022-11-15T00:55:19;7.30;;;3.37;;
18072;SDS011;9161;47.348;9.648;2022-11-15T01:00:04;5.60;;;2.97;;
18072;SDS011;9161;47.348;9.648;2022-11-15T01:04:49;6.43;;;2.93;;
18072;SDS011;9161;47.348;9.648;2022-11-15T01:09:33;5.93;;;2.60;;
18072;SDS011;9161;47.348;9.648;2022-11-15T01:14:18;6.50;;;3.13;;
18072;SDS011;9161;47.348;9.648;2022-11-15T01:19:06;5.43;;;2.60;;
18072;SDS011;9161;47.348;9.648;2022-11-15T01:23:52;4.87;;;2.77;;
18072;SDS011;9161;47.348;9.648;2022-11-15T01:28:36;5.43;;;2.50;;
18072;SDS011;9161;47.348;9.648;2022-11-15T01:33:22;4.77;;;2.40;;
18072;SDS011;9161;47.348;9.648;2022-11-15T01:38:06;3.77;;;2.10;;
18072;SDS011;9161;47.348;9.648;2022-11-15T01:42:50;5.17;;;2.33;;
18072;SDS011;9161;47.348;9.648;2022-11-15T01:47:35;4.40;;;2.13;;
18072;SDS011;9161;47.348;9.648;2022-11-15T01:52:23;2.57;;;1.80;;
18072;SDS011;9161;47.348;9.648;2022-11-15T01:57:09;2.83;;;1.83;;
18072;SDS011;9161;47.348;9.648;2022-11-15T02:01:54;3.30;;;1.80;;
18072;SDS011;9161;47.348;9.648;2022-11-15T02:06:37;3.50;;;1.70;;
18072;SDS011;9161;47.348;9.648;2022-11-15T02:11:23;3.53;;;1.50;;
18072;SDS011;9161;47.348;9.648;2022-11-15T02:16:09;4.93;;;1.77;;
18072;SDS011;9161;47.348;9.648;2022-11-15T02:21:09;3.30;;;1.40;;
18072;SDS011;9161;47.348;9.648;2022-11-15T02:26:05;3.10;;;1.40;;
18072;SDS011;9161;47.348;9.648;2022-11-15T02:31:06;2.80;;;1.63;;
18072;SDS011;9161;47.348;9.648;2022-11-15T02:35:57;4.23;;;1.80;;
18072;SDS011;9161;47.348;9.648;2022-11-15T02:40:45;4.17;;;1.80;;
18072;SDS011;9161;47.348;9.648;2022-11-15T02:45:37;2.63;;;1.50;;
18072;SDS011;9161;47.348;9.648;2022-11-15T02:50:27;2.80;;;1.60;;
18072;SDS011;9161;47.348;9.648;2022-11-15T02:55:25;2.73;;;1.90;;
18072;SDS011;9161;47.348;9.648;2022-11-15T03:00:10;3.20;;;1.70;;
18072;SDS011;9161;47.348;9.648;2022-11-15T03:04:58;4.73;;;2.17;;
18072;SDS011;9161;47.348;9.648;2022-11-15T03:09:48;5.33;;;1.80;;
18072;SDS011;9161;47.348;9.648;2022-11-15T03:14:40;4.00;;;2.00;;
18072;SDS011;9161;47.348;9.648;2022-11-15T03:19:33;5.67;;;2.30;;
18072;SDS011;9161;47.348;9.648;2022-11-15T03:24:21;6.23;;;2.77;;
18072;SDS011;9161;47.348;9.648;2022-11-15T03:29:09;4.53;;;3.00;;
18072;SDS011;9161;47.348;9.648;2022-11-15T03:33:57;7.03;;;3.83;;
18072;SDS011;9161;47.348;9.648;2022-11-15T03:38:44;6.87;;;4.37;;
18072;SDS011;9161;47.348;9.648;2022-11-15T03:43:30;8.20;;;3.87;;
18072;SDS011;9161;47.348;9.648;2022-11-15T03:48:24;8.77;;;3.80;;
18072;SDS011;9161;47.348;9.648;2022-11-15T03:53:10;7.00;;;3.77;;
18072;SDS011;9161;47.348;9.648;2022-11-15T03:57:58;5.90;;;3.70;;
18072;SDS011;9161;47.348;9.648;2022-11-15T04:02:42;7.40;;;3.90;;
18072;SDS011;9161;47.348;9.648;2022-11-15T04:07:29;9.27;;;4.07;;
18072;SDS011;9161;47.348;9.648;2022-11-15T04:12:13;5.87;;;3.40;;
18072;SDS011;9161;47.348;9.648;2022-11-15T04:17:12;8.23;;;3.70;;
18072;SDS011;9161;47.348;9.648;2022-11-15T04:21:55;6.27;;;3.90;;
18072;SDS011;9161;47.348;9.648;2022-11-15T04:26:58;8.33;;;3.93;;
18072;SDS011;9161;47.348;9.648;2022-11-15T04:31:41;6.87;;;3.77;;
18072;SDS011;9161;47.348;9.648;2022-11-15T04:36:25;6.60;;;3.23;;
18072;SDS011;9161;47.348;9.648;2022-11-15T04:41:26;6.57;;;3.40;;
18072;SDS011;9161;47.348;9.648;2022-11-15T04:46:11;9.73;;;4.23;;
18072;SDS011;9161;47.348;9.648;2022-11-15T04:50:55;11.07;;;4.23;;
18072;SDS011;9161;47.348;9.648;2022-11-15T04:55:38;6.90;;;3.77;;
18072;SDS011;9161;47.348;9.648;2022-11-15T05:00:22;10.17;;;4.70;;
18072;SDS011;9161;47.348;9.648;2022-11-15T05:05:07;8.03;;;4.17;;
18072;SDS011;9161;47.348;9.648;2022-11-15T05:09:51;6.13;;;3.73;;
18072;SDS011;9161;47.348;9.648;2022-11-15T05:14:34;7.50;;;3.97;;
18072;SDS011;9161;47.348;9.648;2022-11-15T05:19:18;8.47;;;4.80;;
18072;SDS011;9161;47.348;9.648;2022-11-15T05:24:03;7.50;;;3.67;;
18072;SDS011;9161;47.348;9.648;2022-11-15T05:28:51;7.07;;;3.20;;
18072;SDS011;9161;47.348;9.648;2022-11-15T05:33:35;9.30;;;4.33;;
18072;SDS011;9161;47.348;9.648;2022-11-15T05:38:20;7.20;;;3.40;;
18072;SDS011;9161;47.348;9.648;2022-11-15T05:43:07;7.13;;;4.03;;
18072;SDS011;9161;47.348;9.648;2022-11-15T05:47:52;7.73;;;3.93;;
18072;SDS011;9161;47.348;9.648;2022-11-15T05:52:39;9.77;;;4.00;;
18072;SDS011;9161;47.348;9.648;2022-11-15T05:57:26;11.63;;;4.03;;
18072;SDS011;9161;47.348;9.648;2022-11-15T06:02:12;13.77;;;4.87;;
18072;SDS011;9161;47.348;9.648;2022-11-15T06:06:55;12.73;;;5.30;;
18072;SDS011;9161;47.348;9.648;2022-11-15T06:11:40;14.97;;;6.10;;
18072;SDS011;9161;47.348;9.648;2022-11-15T06:16:24;10.93;;;5.00;;
18072;SDS011;9161;47.348;9.648;2022-11-15T06:21:09;17.23;;;6.83;;
18072;SDS011;9161;47.348;9.648;2022-11-15T06:25:52;12.63;;;5.07;;
18072;SDS011;9161;47.348;9.648;2022-11-15T06:30:36;10.13;;;4.63;;
18072;SDS011;9161;47.348;9.648;2022-11-15T06:35:19;11.60;;;6.07;;
18072;SDS011;9161;47.348;9.648;2022-11-15T06:40:05;10.10;;;4.47;;
18072;SDS011;9161;47.348;9.648;2022-11-15T06:44:50;11.27;;;4.70;;
18072;SDS011;9161;47.348;9.648;2022-11-15T06:49:33;11.70;;;5.07;;
18072;SDS011;9161;47.348;9.648;2022-11-15T06:54:17;10.40;;;5.23;;
18072;SDS011;9161;47.348;9.648;2022-11-15T06:59:03;17.10;;;5.90;;
18072;SDS011;9161;47.348;9.648;2022-11-15T07:03:47;16.03;;;7.17;;
18072;SDS011;9161;47.348;9.648;2022-11-15T07:08:31;14.90;;;7.17;;
18072;SDS011;9161;47.348;9.648;2022-11-15T07:13:14;13.07;;;6.43;;
18072;SDS011;9161;47.348;9.648;2022-11-15T07:18:01;10.80;;;5.47;;
18072;SDS011;9161;47.348;9.648;2022-11-15T07:22:45;10.90;;;6.60;;
18072;SDS011;9161;47.348;9.648;2022-11-15T07:27:28;10.03;;;5.73;;
18072;SDS011;9161;47.348;9.648;2022-11-15T07:32:12;12.37;;;5.37;;
18072;SDS011;9161;47.348;9.648;2022-11-15T07:36:57;9.90;;;5.43;;
18072;SDS011;9161;47.348;9.648;2022-11-15T07:41:41;11.97;;;6.00;;
18072;SDS011;9161;47.348;9.648;2022-11-15T07:46:25;13.57;;;7.40;;
18072;SDS011;9161;47.348;9.648;2022-11-15T07:51:10;14.23;;;6.80;;
18072;SDS011;9161;47.348;9.648;2022-11-15T07:55:57;15.60;;;6.90;;
18072;SDS011;9161;47.348;9.648;2022-11-15T08:00:40;18.87;;;7.10;;
18072;SDS011;9161;47.348;9.648;2022-11-15T08:05:24;22.73;;;8.67;;
18072;SDS011;9161;47.348;9.648;2022-11-15T08:10:07;19.07;;;7.50;;
18072;SDS011;9161;47.348;9.648;2022-11-15T08:14:54;19.87;;;6.73;;
18072;SDS011;9161;47.348;9.648;2022-11-15T08:19:38;16.30;;;7.87;;
18072;SDS011;9161;47.348;9.648;2022-11-15T08:24:21;20.63;;;6.77;;
18072;SDS011;9161;47.348;9.648;2022-11-15T08:29:05;17.50;;;7.30;;
18072;SDS011;9161;47.348;9.648;2022-11-15T08:33:51;12.40;;;6.17;;
18072;SDS011;9161;47.348;9.648;2022-11-15T08:38:35;15.43;;;7.30;;
18072;SDS011;9161;47.348;9.648;2022-11-15T08:43:18;9.77;;;5.80;;
18072;SDS011;9161;47.348;9.648;2022-11-15T08:48:02;13.60;;;6.77;;
18072;SDS011;9161;47.348;9.648;2022-11-15T08:52:47;19.47;;;9.87;;
18072;SDS011;9161;47.348;9.648;2022-11-15T08:57:31;16.10;;;8.50;;
18072;SDS011;9161;47.348;9.648;2022-11-15T09:02:14;22.50;;;8.07;;
18072;SDS011;9161;47.348;9.648;2022-11-15T09:06:58;19.97;;;9.37;;
18072;SDS011;9161;47.348;9.648;2022-11-15T09:11:43;17.40;;;8.17;;
18072;SDS011;9161;47.348;9.648;2022-11-15T09:16:28;21.03;;;7.97;;
18072;SDS011;9161;47.348;9.648;2022-11-15T09:21:13;16.17;;;6.87;;
18072;SDS011;9161;47.348;9.648;2022-11-15T09:26:00;11.13;;;5.67;;
18072;SDS011;9161;47.348;9.648;2022-11-15T09:30:47;8.93;;;4.43;;
18072;SDS011;9161;47.348;9.648;2022-11-15T09:35:30;13.68;;;4.80;;
18072;SDS011;9161;47.348;9.648;2022-11-15T09:40:14;10.65;;;5.38;;
18072;SDS011;9161;47.348;9.648;2022-11-15T09:45:09;10.05;;;4.38;;
18072;SDS011;9161;47.348;9.648;2022-11-15T09:50:06;9.25;;;4.40;;
18072;SDS011;9161;47.348;9.648;2022-11-15T09:54:53;9.02;;;4.50;;
18072;SDS011;9161;47.348;9.648;2022-11-15T09:59:40;10.20;;;4.95;;
18072;SDS011;9161;47.348;9.648;2022-11-15T10:04:36;11.00;;;5.57;;
18072;SDS011;9161;47.348;9.648;2022-11-15T10:09:24;12.32;;;5.25;;
18072;SDS011;9161;47.348;9.648;2022-11-15T10:14:12;17.13;;;6.18;;
18072;SDS011;9161;47.348;9.648;2022-11-15T10:19:00;15.88;;;6.38;;
18072;SDS011;9161;47.348;9.648;2022-11-15T10:23:50;13.43;;;6.40;;
18072;SDS011;9161;47.348;9.648;2022-11-15T10:28:35;12.02;;;6.75;;
18072;SDS011;9161;47.348;9.648;2022-11-15T10:33:22;10.57;;;4.50;;
18072;SDS011;9161;47.348;9.648;2022-11-15T10:38:09;7.13;;;4.90;;
18072;SDS011;9161;47.348;9.648;2022-11-15T10:43:04;5.75;;;3.88;;
18072;SDS011;9161;47.348;9.648;2022-11-15T10:48:18;7.28;;;3.88;;
18072;SDS011;9161;47.348;9.648;2022-11-15T10:53:10;9.13;;;3.90;;
18072;SDS011;9161;47.348;9.648;2022-11-15T10:58:02;8.70;;;5.00;;
18072;SDS011;9161;47.348;9.648;2022-11-15T11:02:56;6.97;;;4.40;;
18072;SDS011;9161;47.348;9.648;2022-11-15T11:07:43;8.93;;;4.05;;
18072;SDS011;9161;47.348;9.648;2022-11-15T11:12:40;9.13;;;4.40;;
18072;SDS011;9161;47.348;9.648;2022-11-15T11:17:26;7.32;;;4.22;;
18072;SDS011;9161;47.348;9.648;2022-11-15T11:22:20;10.07;;;4.22;;
18072;SDS011;9161;47.348;9.648;2022-11-15T11:27:16;11.20;;;4.63;;
18072;SDS011;9161;47.348;9.648;2022-11-15T11:32:13;8.15;;;4.40;;
18072;SDS011;9161;47.348;9.648;2022-11-15T11:37:14;6.43;;;4.57;;
18072;SDS011;9161;47.348;9.648;2022-11-15T11:42:07;8.07;;;4.95;;
18072;SDS011;9161;47.348;9.648;2022-11-15T11:47:03;7.28;;;4.85;;
18072;SDS011;9161;47.348;9.648;2022-11-15T11:51:53;8.05;;;4.90;;
18072;SDS011;9161;47.348;9.648;2022-11-15T11:56:43;7.68;;;5.30;;
18072;SDS011;9161;47.348;9.648;2022-11-15T12:01:29;9.13;;;5.77;;
18072;SDS011;9161;47.348;9.648;2022-11-15T12:06:21;11.17;;;5.50;;
18072;SDS011;9161;47.348;9.648;2022-11-15T12:11:12;8.30;;;5.60;;
18072;SDS011;9161;47.348;9.648;2022-11-15T12:15:59;8.43;;;5.40;;
18072;SDS011;9161;47.348;9.648;2022-11-15T12:20:52;19.03;;;5.67;;
18072;SDS011;9161;47.348;9.648;2022-11-15T12:25:41;9.10;;;6.03;;
18072;SDS011;9161;47.348;9.648;2022-11-15T12:30:38;10.70;;;6.07;;
18072;SDS011;9161;47.348;9.648;2022-11-15T12:35:27;9.87;;;5.90;;
18072;SDS011;9161;47.348;9.648;2022-11-15T12:40:21;10.47;;;6.60;;
18072;SDS011;9161;47.348;9.648;2022-11-15T12:50:18;11.13;;;6.37;;
18072;SDS011;9161;47.348;9.648;2022-11-15T12:55:36;10.73;;;6.70;;
18072;SDS011;9161;47.348;9.648;2022-11-15T13:10:38;9.63;;;5.93;;
18072;SDS011;9161;47.348;9.648;2022-11-15T13:20:37;12.73;;;6.23;;
18072;SDS011;9161;47.348;9.648;2022-11-15T13:25:26;11.37;;;6.50;;
18072;SDS011;9161;47.348;9.648;2022-11-15T13:30:23;11.53;;;7.00;;
18072;SDS011;9161;47.348;9.648;2022-11-15T13:35:08;10.53;;;6.63;;
18072;SDS011;9161;47.348;9.648;2022-11-15T13:39:51;12.10;;;6.77;;
18072;SDS011;9161;47.348;9.648;2022-11-15T13:44:36;10.07;;;6.23;;
18072;SDS011;9161;47.348;9.648;2022-11-15T13:49:19;11.40;;;6.83;;
18072;SDS011;9161;47.348;9.648;2022-11-15T13:54:19;13.33;;;7.70;;
18072;SDS011;9161;47.348;9.648;2022-11-15T13:59:08;18.83;;;8.33;;
18072;SDS011;9161;47.348;9.648;2022-11-15T14:03:55;16.97;;;8.43;;
18072;SDS011;9161;47.348;9.648;2022-11-15T14:08:41;17.90;;;8.13;;
18072;SDS011;9161;47.348;9.648;2022-11-15T14:13:39;15.30;;;8.57;;
18072;SDS011;9161;47.348;9.648;2022-11-15T14:18:40;12.17;;;7.60;;
18072;SDS011;9161;47.348;9.648;2022-11-15T14:23:27;15.23;;;8.27;;
18072;SDS011;9161;47.348;9.648;2022-11-15T14:28:12;13.10;;;8.83;;
18072;SDS011;9161;47.348;9.648;2022-11-15T14:32:57;15.00;;;9.53;;
18072;SDS011;9161;47.348;9.648;2022-11-15T14:37:41;15.90;;;8.93;;
18072;SDS011;9161;47.348;9.648;2022-11-15T14:42:27;14.13;;;8.47;;
18072;SDS011;9161;47.348;9.648;2022-11-15T14:47:11;16.77;;;9.03;;
18072;SDS011;9161;47.348;9.648;2022-11-15T14:51:55;15.53;;;9.30;;
18072;SDS011;9161;47.348;9.648;2022-11-15T14:56:38;14.17;;;9.47;;
18072;SDS011;9161;47.348;9.648;2022-11-15T15:01:25;15.10;;;8.90;;
18072;SDS011;9161;47.348;9.648;2022-11-15T15:06:09;14.07;;;8.33;;
18072;SDS011;9161;47.348;9.648;2022-11-15T15:10:58;11.47;;;7.43;;
18072;SDS011;9161;47.348;9.648;2022-11-15T15:15:42;12.47;;;7.90;;
18072;SDS011;9161;47.348;9.648;2022-11-15T15:20:27;14.43;;;8.50;;
18072;SDS011;9161;47.348;9.648;2022-11-15T15:30:14;13.77;;;7.77;;
18072;SDS011;9161;47.348;9.648;2022-11-15T15:34:58;18.90;;;8.03;;
18072;SDS011;9161;47.348;9.648;2022-11-15T15:39:43;13.37;;;7.67;;
18072;SDS011;9161;47.348;9.648;2022-11-15T15:44:26;15.53;;;8.20;;
18072;SDS011;9161;47.348;9.648;2022-11-15T15:49:10;16.53;;;8.63;;
18072;SDS011;9161;47.348;9.648;2022-11-15T15:53:53;14.67;;;8.33;;
18072;SDS011;9161;47.348;9.648;2022-11-15T15:58:41;16.30;;;7.43;;
18072;SDS011;9161;47.348;9.648;2022-11-15T16:03:24;15.47;;;8.10;;
18072;SDS011;9161;47.348;9.648;2022-11-15T16:08:10;19.27;;;8.17;;
18072;SDS011;9161;47.348;9.648;2022-11-15T16:13:00;17.37;;;7.70;;
18072;SDS011;9161;47.348;9.648;2022-11-15T16:17:46;20.33;;;8.83;;
18072;SDS011;9161;47.348;9.648;2022-11-15T16:22:32;17.87;;;8.00;;
18072;SDS011;9161;47.348;9.648;2022-11-15T16:27:16;18.10;;;9.50;;
18072;SDS011;9161;47.348;9.648;2022-11-15T16:32:02;16.53;;;8.80;;
18072;SDS011;9161;47.348;9.648;2022-11-15T16:36:47;17.30;;;8.67;;
18072;SDS011;9161;47.348;9.648;2022-11-15T16:41:31;20.43;;;9.43;;
18072;SDS011;9161;47.348;9.648;2022-11-15T16:46:15;15.63;;;9.00;;
18072;SDS011;9161;47.348;9.648;2022-11-15T16:51:00;21.30;;;9.60;;
18072;SDS011;9161;47.348;9.648;2022-11-15T16:55:47;19.53;;;9.57;;
18072;SDS011;9161;47.348;9.648;2022-11-15T17:00:31;22.63;;;10.60;;
18072;SDS011;9161;47.348;9.648;2022-11-15T17:05:16;21.80;;;10.37;;
18072;SDS011;9161;47.348;9.648;2022-11-15T17:10:02;20.23;;;10.37;;
18072;SDS011;9161;47.348;9.648;2022-11-15T17:14:48;20.83;;;10.40;;
18072;SDS011;9161;47.348;9.648;2022-11-15T17:19:32;19.77;;;10.67;;
18072;SDS011;9161;47.348;9.648;2022-11-15T17:24:17;17.63;;;9.90;;
18072;SDS011;9161;47.348;9.648;2022-11-15T17:29:01;20.17;;;9.87;;
18072;SDS011;9161;47.348;9.648;2022-11-15T17:33:50;20.93;;;9.47;;
18072;SDS011;9161;47.348;9.648;2022-11-15T17:38:35;17.97;;;10.40;;
18072;SDS011;9161;47.348;9.648;2022-11-15T17:43:19;13.87;;;8.30;;
18072;SDS011;9161;47.348;9.648;2022-11-15T17:48:04;17.53;;;9.30;;
18072;SDS011;9161;47.348;9.648;2022-11-15T17:52:50;21.03;;;8.43;;
18072;SDS011;9161;47.348;9.648;2022-11-15T17:57:36;16.60;;;9.33;;
18072;SDS011;9161;47.348;9.648;2022-11-15T18:02:20;16.27;;;9.13;;
18072;SDS011;9161;47.348;9.648;2022-11-15T18:07:04;17.33;;;8.70;;
18072;SDS011;9161;47.348;9.648;2022-11-15T18:11:53;17.60;;;9.30;;
18072;SDS011;9161;47.348;9.648;2022-11-15T18:16:38;18.50;;;9.17;;
18072;SDS011;9161;47.348;9.648;2022-11-15T18:21:23;19.23;;;9.70;;
18072;SDS011;9161;47.348;9.648;2022-11-15T18:26:09;15.83;;;9.73;;
18072;SDS011;9161;47.348;9.648;2022-11-15T18:30:55;17.30;;;8.93;;
18072;SDS011;9161;47.348;9.648;2022-11-15T18:35:40;18.60;;;9.00;;
18072;SDS011;9161;47.348;9.648;2022-11-15T18:40:24;19.80;;;9.23;;
18072;SDS011;9161;47.348;9.648;2022-11-15T18:45:09;22.37;;;10.20;;
18072;SDS011;9161;47.348;9.648;2022-11-15T18:50:03;14.17;;;8.90;;
18072;SDS011;9161;47.348;9.648;2022-11-15T18:54:48;17.53;;;8.43;;
18072;SDS011;9161;47.348;9.648;2022-11-15T18:59:34;12.30;;;8.03;;
18072;SDS011;9161;47.348;9.648;2022-11-15T19:04:21;14.37;;;8.10;;
18072;SDS011;9161;47.348;9.648;2022-11-15T19:09:11;15.10;;;8.10;;
18072;SDS011;9161;47.348;9.648;2022-11-15T19:13:57;14.20;;;8.13;;
18072;SDS011;9161;47.348;9.648;2022-11-15T19:18:44;17.23;;;8.73;;
18072;SDS011;9161;47.348;9.648;2022-11-15T19:23:28;12.93;;;8.10;;
18072;SDS011;9161;47.348;9.648;2022-11-15T19:28:19;15.57;;;8.20;;
18072;SDS011;9161;47.348;9.648;2022-11-15T19:33:04;16.67;;;8.60;;
18072;SDS011;9161;47.348;9.648;2022-11-15T19:37:49;16.23;;;8.87;;
18072;SDS011;9161;47.348;9.648;2022-11-15T19:42:33;15.47;;;8.23;;
18072;SDS011;9161;47.348;9.648;2022-11-15T19:47:20;14.17;;;7.70;;
18072;SDS011;9161;47.348;9.648;2022-11-15T19:52:05;12.63;;;7.73;;
18072;SDS011;9161;47.348;9.648;2022-11-15T19:56:52;17.40;;;8.17;;
18072;SDS011;9161;47.348;9.648;2022-11-15T20:01:36;16.93;;;8.93;;
18072;SDS011;9161;47.348;9.648;2022-11-15T20:06:22;19.90;;;8.47;;
18072;SDS011;9161;47.348;9.648;2022-11-15T20:11:07;16.50;;;8.93;;
18072;SDS011;9161;47.348;9.648;2022-11-15T20:15:52;18.17;;;8.83;;
18072;SDS011;9161;47.348;9.648;2022-11-15T20:20:38;17.40;;;9.27;;
18072;SDS011;9161;47.348;9.648;2022-11-15T20:25:23;17.37;;;10.17;;
18072;SDS011;9161;47.348;9.648;2022-11-15T20:30:08;17.30;;;9.17;;
18072;SDS011;9161;47.348;9.648;2022-11-15T20:34:53;15.47;;;8.07;;
18072;SDS011;9161;47.348;9.648;2022-11-15T20:39:37;14.90;;;7.90;;
18072;SDS011;9161;47.348;9.648;2022-11-15T20:44:22;17.60;;;9.70;;
18072;SDS011;9161;47.348;9.648;2022-11-15T20:49:06;19.53;;;10.13;;
18072;SDS011;9161;47.348;9.648;2022-11-15T20:53:50;21.73;;;9.47;;
18072;SDS011;9161;47.348;9.648;2022-11-15T20:58:35;16.70;;;8.70;;
18072;SDS011;9161;47.348;9.648;2022-11-15T21:03:21;12.80;;;7.40;;
18072;SDS011;9161;47.348;9.648;2022-11-15T21:08:06;16.37;;;8.20;;
18072;SDS011;9161;47.348;9.648;2022-11-15T21:12:51;14.33;;;7.63;;
18072;SDS011;9161;47.348;9.648;2022-11-15T21:17:36;15.03;;;7.60;;
18072;SDS011;9161;47.348;9.648;2022-11-15T21:22:22;14.73;;;7.37;;
18072;SDS011;9161;47.348;9.648;2022-11-15T21:27:10;14.50;;;7.80;;
18072;SDS011;9161;47.348;9.648;2022-11-15T21:31:54;16.73;;;7.87;;
18072;SDS011;9161;47.348;9.648;2022-11-15T21:36:45;17.17;;;6.90;;
18072;SDS011;9161;47.348;9.648;2022-11-15T21:41:30;12.60;;;6.30;;
18072;SDS011;9161;47.348;9.648;2022-11-15T21:46:15;16.60;;;7.50;;
18072;SDS011;9161;47.348;9.648;2022-11-15T21:50:59;15.90;;;8.20;;
18072;SDS011;9161;47.348;9.648;2022-11-15T21:55:44;19.97;;;8.97;;
18072;SDS011;9161;47.348;9.648;2022-11-15T22:00:29;19.33;;;8.50;;
18072;SDS011;9161;47.348;9.648;2022-11-15T22:05:30;18.90;;;9.10;;
18072;SDS011;9161;47.348;9.648;2022-11-15T22:10:14;17.93;;;8.23;;
18072;SDS011;9161;47.348;9.648;2022-11-15T22:14:57;18.60;;;9.27;;
18072;SDS011;9161;47.348;9.648;2022-11-15T22:19:42;19.30;;;10.07;;
18072;SDS011;9161;47.348;9.648;2022-11-15T22:24:33;20.97;;;10.47;;
18072;SDS011;9161;47.348;9.648;2022-11-15T22:29:16;22.47;;;10.43;;
18072;SDS011;9161;47.348;9.648;2022-11-15T22:34:00;19.63;;;9.47;;
18072;SDS011;9161;47.348;9.648;2022-11-15T22:38:45;21.93;;;10.47;;
18072;SDS011;9161;47.348;9.648;2022-11-15T22:43:29;22.03;;;11.10;;
18072;SDS011;9161;47.348;9.648;2022-11-15T22:48:12;18.90;;;10.57;;
18072;SDS011;9161;47.348;9.648;2022-11-15T22:52:56;20.30;;;10.33;;
18072;SDS011;9161;47.348;9.648;2022-11-15T22:57:41;19.90;;;10.93;;
18072;SDS011;9161;47.348;9.648;2022-11-15T23:02:25;19.10;;;11.03;;
18072;SDS011;9161;47.348;9.648;2022-11-15T23:07:09;22.97;;;11.87;;
18072;SDS011;9161;47.348;9.648;2022-11-15T23:11:52;18.47;;;10.40;;
18072;SDS011;9161;47.348;9.648;2022-11-15T23:16:55;17.10;;;9.00;;
18072;SDS011;9161;47.348;9.648;2022-11-15T23:21:39;11.93;;;7.23;;
18072;SDS011;9161;47.348;9.648;2022-11-15T23:26:41;12.60;;;7.40;;
18072;SDS011;9161;47.348;9.648;2022-11-15T23:31:25;14.83;;;8.40;;
18072;SDS011;9161;47.348;9.648;2022-11-15T23:36:28;19.33;;;9.00;;
18072;SDS011;9161;47.348;9.648;2022-11-15T23:41:12;17.00;;;9.10;;
18072;SDS011;9161;47.348;9.648;2022-11-15T23:45:55;15.10;;;7.80;;
18072;SDS011;9161;47.348;9.648;2022-11-15T23:50:39;14.20;;;7.27;;
18072;SDS011;9161;47.348;9.648;2022-11-15T23:55:30;12.10;;;6.83;;
